createdAt,value
2023-02-09T00:00:02.333Z,12818.33
2023-02-09T00:10:01.509Z,12818.33
2023-02-09T00:20:01.050Z,12818.33
2023-02-09T00:30:03.142Z,12818.33
2023-02-09T00:40:01.099Z,12818.33
2023-02-09T00:50:01.338Z,12818.33
2023-02-09T01:00:02.022Z,12818.33
2023-02-09T01:10:01.247Z,12818.33
2023-02-09T01:20:02.845Z,12818.33
2023-02-09T01:30:01.484Z,12818.33
2023-02-09T01:40:01.320Z,12818.33
2023-02-09T01:50:01.450Z,12818.33
2023-02-09T02:00:01.029Z,12818.33
2023-02-09T02:10:01.094Z,12818.33
2023-02-09T02:20:01.099Z,12818.33
2023-02-09T02:30:01.314Z,12818.33
2023-02-09T02:40:01.059Z,12818.33
2023-02-09T02:50:02.041Z,12818.33
2023-02-09T03:00:01.284Z,12818.33
2023-02-09T03:10:03.154Z,12818.33
2023-02-09T03:20:01.348Z,12818.33
2023-02-09T03:30:01.257Z,12818.33
2023-02-09T03:40:01.309Z,12818.33
2023-02-09T03:50:01.108Z,12818.33
2023-02-09T04:00:01.091Z,12818.33
2023-02-09T04:10:01.035Z,12818.33
2023-02-09T04:20:02.006Z,12818.33
2023-02-09T04:50:01.318Z,12818.33
2023-02-09T05:00:01.291Z,12818.33
2023-02-09T05:10:01.295Z,12818.33
2023-02-09T05:20:01.305Z,12818.33
2023-02-09T05:30:01.083Z,12818.33
2023-02-09T05:40:01.318Z,12818.33
2023-02-09T05:50:01.301Z,12818.33
2023-02-09T06:00:01.092Z,12818.33
2023-02-09T06:10:01.937Z,12818.33
2023-02-09T06:20:04.127Z,12818.33
2023-02-09T06:30:02.203Z,12818.33
2023-02-09T06:40:01.439Z,12818.33
2023-02-09T06:50:01.543Z,12818.33
2023-02-09T07:00:01.043Z,12818.33
2023-02-09T07:10:01.300Z,12818.33
2023-02-09T07:20:01.565Z,12818.33
2023-02-09T07:30:01.475Z,12818.33
2023-02-09T07:40:01.288Z,12818.33
2023-02-09T07:50:01.603Z,12818.33
2023-02-09T08:00:00.190Z,12818.33
2023-02-09T08:10:01.564Z,12818.33
2023-02-09T08:20:02.943Z,12818.33
2023-02-09T08:30:02.768Z,12818.33
2023-02-09T08:40:01.088Z,12818.33
2023-02-09T08:50:02.102Z,12818.33
2023-02-09T09:00:04.049Z,12818.33
2023-02-09T09:10:01.382Z,12818.33
2023-02-09T09:20:01.070Z,12818.33
2023-02-09T09:30:02.475Z,12818.33
2023-02-09T09:40:01.236Z,12818.33
2023-02-09T09:50:01.700Z,12818.33
2023-02-09T10:00:03.788Z,12818.33
2023-02-09T10:10:00.247Z,12818.33
2023-02-09T10:20:00.771Z,12818.33
2023-02-09T10:30:01.728Z,12818.33
2023-02-09T10:40:02.165Z,12818.33
2023-02-09T10:50:02.172Z,12818.33
2023-02-09T11:00:01.022Z,12818.33
2023-02-09T11:10:01.930Z,12818.33
2023-02-09T11:20:01.183Z,12818.33
2023-02-09T11:30:01.353Z,12818.33
2023-02-09T11:40:01.043Z,12818.33
2023-02-09T11:50:01.305Z,12818.33
2023-02-09T12:00:00.192Z,12818.33
2023-02-09T12:10:01.540Z,12818.33
2023-02-09T12:20:01.271Z,12818.33
2023-02-09T12:30:02.897Z,18176.67
2023-02-09T12:40:02.073Z,7241.67
2023-02-09T12:50:01.099Z,17693.75
2023-02-09T13:00:01.143Z,19211.25
2023-02-09T13:10:01.985Z,9510.00
2023-02-09T13:20:02.205Z,9561.67
2023-02-09T13:30:01.323Z,7201.67
2023-02-09T13:40:02.942Z,6525.00
2023-02-09T13:50:04.269Z,13184.58
2023-02-09T14:00:02.351Z,4643.33
2023-02-09T14:10:01.311Z,3353.33
2023-02-09T14:20:01.629Z,7312.92
2023-02-09T14:30:01.194Z,6087.92
2023-02-09T14:40:02.361Z,4588.33
2023-02-09T14:50:01.732Z,2143.33
2023-02-09T15:00:01.085Z,1693.33
2023-02-09T15:10:00.882Z,2400.00
2023-02-09T15:20:01.854Z,1799.58
2023-02-09T15:30:04.472Z,640.00
2023-02-09T15:40:01.338Z,436.67
2023-02-09T15:50:01.326Z,236.67
2023-02-09T16:00:03.514Z,103.33
2023-02-09T16:10:01.177Z,40.00
2023-02-09T16:20:02.200Z,10.00
2023-02-09T16:30:04.144Z,4.87
2023-02-09T16:40:01.509Z,1.02
2023-02-09T16:50:01.620Z,0.34
2023-02-09T17:00:02.212Z,0.34
2023-02-09T17:10:01.289Z,0.34
2023-02-09T17:20:01.088Z,0.34
2023-02-09T17:30:01.024Z,0.34
2023-02-09T17:40:01.151Z,0.23
2023-02-09T17:50:01.571Z,0.23
2023-02-09T18:00:00.991Z,0.23
2023-02-09T18:10:01.977Z,0.23
2023-02-09T18:20:01.023Z,0.23
2023-02-09T18:30:01.203Z,0.23
2023-02-09T18:40:02.178Z,0.23
2023-02-09T18:50:01.211Z,0.23
2023-02-09T19:00:01.051Z,0.23
2023-02-09T19:10:01.133Z,0.23
2023-02-09T19:20:03.366Z,0.23
2023-02-09T19:30:01.134Z,0.34
2023-02-09T19:40:02.241Z,0.23
2023-02-09T19:50:02.999Z,0.23
2023-02-09T20:00:06.119Z,0.34
2023-02-09T20:10:01.324Z,0.00
2023-02-09T20:20:02.232Z,0.00
2023-02-09T20:30:01.359Z,0.00
2023-02-09T20:40:02.214Z,0.00
2023-02-09T20:50:01.050Z,0.00
2023-02-09T21:00:01.343Z,0.00
2023-02-09T21:10:03.672Z,0.00
2023-02-09T21:20:01.686Z,0.00
2023-02-09T21:30:01.103Z,0.00
2023-02-09T21:40:01.290Z,0.00
2023-02-09T21:50:01.080Z,0.00
2023-02-09T22:00:01.034Z,0.00
2023-02-09T22:10:01.517Z,0.00
2023-02-09T22:20:01.554Z,0.00
2023-02-09T22:30:02.531Z,0.00
2023-02-09T22:40:01.526Z,0.00
2023-02-09T22:50:01.606Z,0.00
2023-02-09T23:00:01.120Z,0.00
2023-02-09T23:10:01.298Z,0.00
2023-02-09T23:20:00.903Z,0.00
2023-02-09T23:30:01.304Z,0.00
2023-02-09T23:40:00.894Z,0.00
2023-02-09T23:50:01.550Z,0.00
